sensor_id;sensor_type;location;lat;lon;timestamp;pressure;altitude;pressure_sealevel;temperature;humidity
57114;BME280;42994;51.606;9.988;2024-03-25T00:00:28;98234.50;;;3.07;100.00
57114;BME280;42994;51.606;9.988;2024-03-25T00:02:54;98237.97;;;3.08;100.00
57114;BME280;42994;51.606;9.988;2024-03-25T00:05:21;98249.41;;;3.08;100.00
57114;BME280;42994;51.606;9.988;2024-03-25T00:07:48;98256.34;;;3.10;100.00
57114;BME280;42994;51.606;9.988;2024-03-25T00:10:15;98266.75;;;3.11;100.00
57114;BME280;42994;51.606;9.988;2024-03-25T00:12:42;98262.13;;;3.13;100.00
57114;BME280;42994;51.606;9.988;2024-03-25T00:15:09;98266.44;;;3.14;100.00
57114;BME280;42994;51.606;9.988;2024-03-25T00:17:35;98266.09;;;3.17;100.00
57114;BME280;42994;51.606;9.988;2024-03-25T00:20:02;98274.72;;;3.19;100.00
57114;BME280;42994;51.606;9.988;2024-03-25T00:22:31;98282.03;;;3.25;100.00
57114;BME280;42994;51.606;9.988;2024-03-25T00:24:58;98284.00;;;3.32;100.00
57114;BME280;42994;51.606;9.988;2024-03-25T00:27:24;98276.72;;;3.34;100.00
57114;BME280;42994;51.606;9.988;2024-03-25T00:29:52;98276.25;;;3.38;100.00
57114;BME280;42994;51.606;9.988;2024-03-25T00:32:17;98272.78;;;3.38;100.00
57114;BME280;42994;51.606;9.988;2024-03-25T00:34:45;98275.59;;;3.36;100.00
57114;BME280;42994;51.606;9.988;2024-03-25T00:37:10;98273.59;;;3.38;100.00
57114;BME280;42994;51.606;9.988;2024-03-25T00:39:37;98266.47;;;3.39;100.00
57114;BME280;42994;51.606;9.988;2024-03-25T00:42:04;98257.69;;;3.38;100.00
57114;BME280;42994;51.606;9.988;2024-03-25T00:44:30;98254.22;;;3.38;100.00
57114;BME280;42994;51.606;9.988;2024-03-25T00:46:57;98254.91;;;3.40;100.00
57114;BME280;42994;51.606;9.988;2024-03-25T00:49:25;98246.28;;;3.38;100.00
57114;BME280;42994;51.606;9.988;2024-03-25T00:51:51;98241.81;;;3.38;100.00
57114;BME280;42994;51.606;9.988;2024-03-25T00:54:18;98234.03;;;3.37;100.00
57114;BME280;42994;51.606;9.988;2024-03-25T00:56:44;98223.25;;;3.38;100.00
57114;BME280;42994;51.606;9.988;2024-03-25T00:59:11;98218.63;;;3.40;100.00
57114;BME280;42994;51.606;9.988;2024-03-25T01:01:37;98213.31;;;3.40;100.00
57114;BME280;42994;51.606;9.988;2024-03-25T01:04:05;98212.66;;;3.38;100.00
57114;BME280;42994;51.606;9.988;2024-03-25T01:06:31;98205.53;;;3.39;100.00
57114;BME280;42994;51.606;9.988;2024-03-25T01:08:58;98198.59;;;3.38;100.00
57114;BME280;42994;51.606;9.988;2024-03-25T01:11:24;98204.91;;;3.45;100.00
57114;BME280;42994;51.606;9.988;2024-03-25T01:13:51;98199.09;;;3.41;100.00
57114;BME280;42994;51.606;9.988;2024-03-25T01:16:17;98204.56;;;3.40;100.00
57114;BME280;42994;51.606;9.988;2024-03-25T01:18:44;98200.25;;;3.39;100.00
57114;BME280;42994;51.606;9.988;2024-03-25T01:21:11;98202.41;;;3.43;100.00
57114;BME280;42994;51.606;9.988;2024-03-25T01:23:37;98200.91;;;3.41;100.00
57114;BME280;42994;51.606;9.988;2024-03-25T01:26:04;98202.56;;;3.42;100.00
57114;BME280;42994;51.606;9.988;2024-03-25T01:28:30;98194.63;;;3.42;100.00
57114;BME280;42994;51.606;9.988;2024-03-25T01:30:56;98197.28;;;3.42;100.00
57114;BME280;42994;51.606;9.988;2024-03-25T01:33:23;98194.94;;;3.39;100.00
57114;BME280;42994;51.606;9.988;2024-03-25T01:35:49;98197.28;;;3.42;100.00
57114;BME280;42994;51.606;9.988;2024-03-25T01:38:18;98199.09;;;3.41;100.00
57114;BME280;42994;51.606;9.988;2024-03-25T01:40:43;98198.59;;;3.38;100.00
57114;BME280;42994;51.606;9.988;2024-03-25T01:43:11;98220.44;;;3.32;100.00
57114;BME280;42994;51.606;9.988;2024-03-25T01:45:37;98212.84;;;3.29;100.00
57114;BME280;42994;51.606;9.988;2024-03-25T01:48:06;98214.50;;;3.21;100.00
57114;BME280;42994;51.606;9.988;2024-03-25T01:50:35;98218.94;;;3.21;100.00
57114;BME280;42994;51.606;9.988;2024-03-25T01:53:02;98232.53;;;3.18;100.00
57114;BME280;42994;51.606;9.988;2024-03-25T01:55:30;98238.47;;;3.12;100.00
57114;BME280;42994;51.606;9.988;2024-03-25T01:58:00;98247.25;;;3.12;100.00
57114;BME280;42994;51.606;9.988;2024-03-25T02:00:26;98257.16;;;3.10;100.00
57114;BME280;42994;51.606;9.988;2024-03-25T02:02:53;98253.69;;;3.10;100.00
57114;BME280;42994;51.606;9.988;2024-03-25T02:05:20;98254.84;;;3.07;100.00
57114;BME280;42994;51.606;9.988;2024-03-25T02:07:48;98266.56;;;3.04;100.00
57114;BME280;42994;51.606;9.988;2024-03-25T02:10:15;98279.16;;;3.02;100.00
57114;BME280;42994;51.606;9.988;2024-03-25T02:12:44;98287.09;;;3.02;100.00
57114;BME280;42994;51.606;9.988;2024-03-25T02:15:11;98286.94;;;3.04;100.00
57114;BME280;42994;51.606;9.988;2024-03-25T02:17:38;98295.53;;;3.06;100.00
57114;BME280;42994;51.606;9.988;2024-03-25T02:20:06;98281.47;;;3.05;100.00
57114;BME280;42994;51.606;9.988;2024-03-25T02:22:33;98294.56;;;3.07;100.00
57114;BME280;42994;51.606;9.988;2024-03-25T02:25:01;98288.94;;;3.10;100.00
57114;BME280;42994;51.606;9.988;2024-03-25T02:27:31;98303.84;;;3.11;100.00
57114;BME280;42994;51.606;9.988;2024-03-25T02:30:02;98295.59;;;3.14;100.00
57114;BME280;42994;51.606;9.988;2024-03-25T02:32:29;98293.91;;;3.13;100.00
57114;BME280;42994;51.606;9.988;2024-03-25T02:34:56;98294.72;;;3.14;100.00
57114;BME280;42994;51.606;9.988;2024-03-25T02:37:23;98299.56;;;3.18;100.00
57114;BME280;42994;51.606;9.988;2024-03-25T02:39:49;98295.38;;;3.16;100.00
57114;BME280;42994;51.606;9.988;2024-03-25T02:42:16;98288.97;;;3.18;100.00
57114;BME280;42994;51.606;9.988;2024-03-25T02:44:44;98289.94;;;3.17;100.00
57114;BME280;42994;51.606;9.988;2024-03-25T02:47:11;98287.28;;;3.17;100.00
57114;BME280;42994;51.606;9.988;2024-03-25T02:49:37;98295.91;;;3.19;100.00
57114;BME280;42994;51.606;9.988;2024-03-25T02:52:04;98291.44;;;3.20;100.00
57114;BME280;42994;51.606;9.988;2024-03-25T02:54:30;98293.09;;;3.21;100.00
57114;BME280;42994;51.606;9.988;2024-03-25T02:56:57;98292.28;;;3.20;100.00
57114;BME280;42994;51.606;9.988;2024-03-25T02:59:23;98291.28;;;3.21;100.00
57114;BME280;42994;51.606;9.988;2024-03-25T03:01:51;98293.94;;;3.21;100.00
57114;BME280;42994;51.606;9.988;2024-03-25T03:04:17;98295.91;;;3.19;100.00
57114;BME280;42994;51.606;9.988;2024-03-25T03:06:43;98289.63;;;3.20;100.00
57114;BME280;42994;51.606;9.988;2024-03-25T03:09:09;98298.56;;;3.27;100.00
57114;BME280;42994;51.606;9.988;2024-03-25T03:11:36;98291.09;;;3.23;100.00
57114;BME280;42994;51.606;9.988;2024-03-25T03:14:02;98299.06;;;3.23;100.00
57114;BME280;42994;51.606;9.988;2024-03-25T03:16:29;98292.78;;;3.24;100.00
57114;BME280;42994;51.606;9.988;2024-03-25T03:18:56;98287.47;;;3.24;100.00
57114;BME280;42994;51.606;9.988;2024-03-25T03:21:23;98282.34;;;3.22;100.00
57114;BME280;42994;51.606;9.988;2024-03-25T03:23:49;98267.47;;;3.21;100.00
57114;BME280;42994;51.606;9.988;2024-03-25T03:26:16;98272.91;;;3.20;100.00
57114;BME280;42994;51.606;9.988;2024-03-25T03:28:41;98261.31;;;3.21;100.00
57114;BME280;42994;51.606;9.988;2024-03-25T03:31:08;98269.91;;;3.23;100.00
57114;BME280;42994;51.606;9.988;2024-03-25T03:33:34;98272.06;;;3.19;100.00
57114;BME280;42994;51.606;9.988;2024-03-25T03:36:03;98273.38;;;3.15;100.00
57114;BME280;42994;51.606;9.988;2024-03-25T03:38:28;98277.19;;;3.13;100.00
57114;BME280;42994;51.606;9.988;2024-03-25T03:40:57;98269.56;;;3.10;100.00
57114;BME280;42994;51.606;9.988;2024-03-25T03:43:22;98271.91;;;3.13;100.00
57114;BME280;42994;51.606;9.988;2024-03-25T03:45:49;98273.72;;;3.12;100.00
57114;BME280;42994;51.606;9.988;2024-03-25T03:48:15;98273.72;;;3.12;100.00
57114;BME280;42994;51.606;9.988;2024-03-25T03:50:42;98279.03;;;3.12;100.00
57114;BME280;42994;51.606;9.988;2024-03-25T03:53:09;98267.94;;;3.08;100.00
57114;BME280;42994;51.606;9.988;2024-03-25T03:55:36;98279.81;;;3.04;100.00
57114;BME280;42994;51.606;9.988;2024-03-25T03:58:02;98274.69;;;3.03;100.00
57114;BME280;42994;51.606;9.988;2024-03-25T04:00:29;98283.63;;;3.02;100.00
57114;BME280;42994;51.606;9.988;2024-03-25T04:02:55;98277.00;;;2.98;100.00
57114;BME280;42994;51.606;9.988;2024-03-25T04:05:21;98284.94;;;2.98;100.00
57114;BME280;42994;51.606;9.988;2024-03-25T04:07:47;98284.59;;;2.93;100.00
57114;BME280;42994;51.606;9.988;2024-03-25T04:10:15;98284.44;;;2.94;100.00
57114;BME280;42994;51.606;9.988;2024-03-25T04:12:41;98291.72;;;2.92;100.00
57114;BME280;42994;51.606;9.988;2024-03-25T04:15:08;98295.84;;;2.95;100.00
57114;BME280;42994;51.606;9.988;2024-03-25T04:17:34;98297.97;;;2.91;100.00
57114;BME280;42994;51.606;9.988;2024-03-25T04:20:01;98297.47;;;2.87;100.00
57114;BME280;42994;51.606;9.988;2024-03-25T04:22:31;98303.59;;;2.88;100.00
57114;BME280;42994;51.606;9.988;2024-03-25T04:24:58;98296.31;;;2.90;100.00
57114;BME280;42994;51.606;9.988;2024-03-25T04:27:25;98296.50;;;2.88;100.00
57114;BME280;42994;51.606;9.988;2024-03-25T04:29:52;98295.34;;;2.91;100.00
57114;BME280;42994;51.606;9.988;2024-03-25T04:32:18;98299.81;;;2.91;100.00
57114;BME280;42994;51.606;9.988;2024-03-25T04:34:44;98305.09;;;2.91;100.00
57114;BME280;42994;51.606;9.988;2024-03-25T04:37:10;98309.41;;;2.92;100.00
57114;BME280;42994;51.606;9.988;2024-03-25T04:39:36;98301.78;;;2.88;100.00
57114;BME280;42994;51.606;9.988;2024-03-25T04:42:03;98306.09;;;2.89;100.00
57114;BME280;42994;51.606;9.988;2024-03-25T04:44:30;98303.59;;;2.88;100.00
57114;BME280;42994;51.606;9.988;2024-03-25T04:46:56;98305.41;;;2.87;100.00
57114;BME280;42994;51.606;9.988;2024-03-25T04:49:22;98308.72;;;2.89;100.00
57114;BME280;42994;51.606;9.988;2024-03-25T04:51:48;98315.69;;;2.91;100.00
57114;BME280;42994;51.606;9.988;2024-03-25T04:54:14;98319.16;;;2.91;100.00
57114;BME280;42994;51.606;9.988;2024-03-25T04:56:40;98326.44;;;2.89;100.00
57114;BME280;42994;51.606;9.988;2024-03-25T04:59:06;98330.56;;;2.92;100.00
57114;BME280;42994;51.606;9.988;2024-03-25T05:01:33;98329.09;;;2.89;100.00
57114;BME280;42994;51.606;9.988;2024-03-25T05:03:59;98320.63;;;2.85;100.00
57114;BME280;42994;51.606;9.988;2024-03-25T05:06:25;98328.94;;;2.91;100.00
57114;BME280;42994;51.606;9.988;2024-03-25T05:08:50;98334.53;;;2.87;100.00
57114;BME280;42994;51.606;9.988;2024-03-25T05:11:16;98337.84;;;2.89;100.00
57114;BME280;42994;51.606;9.988;2024-03-25T05:13:42;98337.69;;;2.91;100.00
57114;BME280;42994;51.606;9.988;2024-03-25T05:16:08;98339.38;;;2.92;100.00
57114;BME280;42994;51.606;9.988;2024-03-25T05:18:35;98344.66;;;2.92;100.00
57114;BME280;42994;51.606;9.988;2024-03-25T05:21:01;98345.63;;;2.91;100.00
57114;BME280;42994;51.606;9.988;2024-03-25T05:23:26;98341.31;;;2.90;100.00
57114;BME280;42994;51.606;9.988;2024-03-25T05:25:52;98337.03;;;2.89;100.00
57114;BME280;42994;51.606;9.988;2024-03-25T05:28:18;98343.97;;;2.90;100.00
57114;BME280;42994;51.606;9.988;2024-03-25T05:30:44;98353.72;;;2.89;100.00
57114;BME280;42994;51.606;9.988;2024-03-25T05:33:10;98350.09;;;2.91;100.00
57114;BME280;42994;51.606;9.988;2024-03-25T05:35:37;98350.94;;;2.91;100.00
57114;BME280;42994;51.606;9.988;2024-03-25T05:38:03;98356.38;;;2.89;100.00
57114;BME280;42994;51.606;9.988;2024-03-25T05:40:29;98363.50;;;2.89;100.00
57114;BME280;42994;51.606;9.988;2024-03-25T05:42:55;98358.88;;;2.91;100.00
57114;BME280;42994;51.606;9.988;2024-03-25T05:45:21;98364.97;;;2.92;100.00
57114;BME280;42994;51.606;9.988;2024-03-25T05:47:47;98366.50;;;2.94;100.00
57114;BME280;42994;51.606;9.988;2024-03-25T05:50:15;98365.84;;;2.92;100.00
57114;BME280;42994;51.606;9.988;2024-03-25T05:52:42;98363.00;;;2.94;100.00
57114;BME280;42994;51.606;9.988;2024-03-25T05:55:08;98369.16;;;2.94;100.00
57114;BME280;42994;51.606;9.988;2024-03-25T05:57:34;98370.13;;;2.93;100.00
57114;BME280;42994;51.606;9.988;2024-03-25T06:00:00;98364.84;;;2.93;100.00
57114;BME280;42994;51.606;9.988;2024-03-25T06:02:26;98366.66;;;2.93;100.00
57114;BME280;42994;51.606;9.988;2024-03-25T06:04:52;98374.59;;;2.93;100.00
57114;BME280;42994;51.606;9.988;2024-03-25T06:07:21;98373.78;;;2.92;100.00
57114;BME280;42994;51.606;9.988;2024-03-25T06:09:48;98376.25;;;2.94;100.00
57114;BME280;42994;51.606;9.988;2024-03-25T06:12:14;98378.72;;;2.95;100.00
57114;BME280;42994;51.606;9.988;2024-03-25T06:14:40;98378.72;;;2.95;100.00
57114;BME280;42994;51.606;9.988;2024-03-25T06:17:06;98388.19;;;2.98;100.00
57114;BME280;42994;51.606;9.988;2024-03-25T06:19:32;98384.22;;;3.02;100.00
57114;BME280;42994;51.606;9.988;2024-03-25T06:21:57;98385.56;;;3.06;100.00
57114;BME280;42994;51.606;9.988;2024-03-25T06:24:23;98388.53;;;3.03;100.00
57114;BME280;42994;51.606;9.988;2024-03-25T06:26:50;98391.69;;;3.06;100.00
57114;BME280;42994;51.606;9.988;2024-03-25T06:29:17;98396.97;;;3.06;100.00
57114;BME280;42994;51.606;9.988;2024-03-25T06:31:43;98403.13;;;3.07;100.00
57114;BME280;42994;51.606;9.988;2024-03-25T06:34:38;98405.09;;;3.05;100.00
57114;BME280;42994;51.606;9.988;2024-03-25T06:37:04;98406.44;;;3.09;100.00
57114;BME280;42994;51.606;9.988;2024-03-25T06:39:30;98410.06;;;3.08;100.00
57114;BME280;42994;51.606;9.988;2024-03-25T06:41:57;98412.88;;;3.06;100.00
57114;BME280;42994;51.606;9.988;2024-03-25T06:44:23;98415.22;;;3.10;100.00
57114;BME280;42994;51.606;9.988;2024-03-25T06:46:49;98410.72;;;3.10;100.00
57114;BME280;42994;51.606;9.988;2024-03-25T06:49:15;98408.94;;;3.11;100.00
57114;BME280;42994;51.606;9.988;2024-03-25T06:51:41;98409.25;;;3.07;100.00
57114;BME280;42994;51.606;9.988;2024-03-25T06:54:06;98410.28;;;3.15;100.00
57114;BME280;42994;51.606;9.988;2024-03-25T06:56:32;98406.63;;;3.16;100.00
57114;BME280;42994;51.606;9.988;2024-03-25T06:58:59;98409.44;;;3.14;100.00
57114;BME280;42994;51.606;9.988;2024-03-25T07:01:25;98403.50;;;3.20;100.00
57114;BME280;42994;51.606;9.988;2024-03-25T07:03:51;98410.13;;;3.24;100.00
57114;BME280;42994;51.606;9.988;2024-03-25T07:06:19;98404.69;;;3.26;100.00
57114;BME280;42994;51.606;9.988;2024-03-25T07:08:44;98393.13;;;3.27;100.00
57114;BME280;42994;51.606;9.988;2024-03-25T07:11:10;98401.06;;;3.35;100.00
57114;BME280;42994;51.606;9.988;2024-03-25T07:13:36;98405.25;;;3.38;100.00
57114;BME280;42994;51.606;9.988;2024-03-25T07:16:04;98404.75;;;3.42;100.00
57114;BME280;42994;51.606;9.988;2024-03-25T07:18:30;98404.59;;;3.44;100.00
57114;BME280;42994;51.606;9.988;2024-03-25T07:20:56;98406.25;;;3.45;100.00
57114;BME280;42994;51.606;9.988;2024-03-25T07:23:21;98398.78;;;3.49;100.00
57114;BME280;42994;51.606;9.988;2024-03-25T07:25:47;98401.13;;;3.52;100.00
57114;BME280;42994;51.606;9.988;2024-03-25T07:28:13;98403.16;;;3.58;100.00
57114;BME280;42994;51.606;9.988;2024-03-25T07:30:39;98398.34;;;3.70;100.00
57114;BME280;42994;51.606;9.988;2024-03-25T07:33:06;98400.53;;;3.74;100.00
57114;BME280;42994;51.606;9.988;2024-03-25T07:35:33;98404.00;;;3.75;100.00
57114;BME280;42994;51.606;9.988;2024-03-25T07:37:59;98401.03;;;3.78;100.00
57114;BME280;42994;51.606;9.988;2024-03-25T07:40:25;98402.34;;;3.82;100.00
57114;BME280;42994;51.606;9.988;2024-03-25T07:42:51;98396.03;;;3.83;100.00
57114;BME280;42994;51.606;9.988;2024-03-25T07:45:16;98404.66;;;3.77;100.00
57114;BME280;42994;51.606;9.988;2024-03-25T07:47:42;98406.00;;;3.89;100.00
57114;BME280;42994;51.606;9.988;2024-03-25T07:50:10;98415.94;;;3.95;100.00
57114;BME280;42994;51.606;9.988;2024-03-25T07:52:35;98406.34;;;3.94;100.00
57114;BME280;42994;51.606;9.988;2024-03-25T07:55:02;98403.38;;;4.06;100.00
57114;BME280;42994;51.606;9.988;2024-03-25T07:57:27;98408.03;;;4.03;100.00
57114;BME280;42994;51.606;9.988;2024-03-25T07:59:53;98401.88;;;4.03;100.00
57114;BME280;42994;51.606;9.988;2024-03-25T08:02:19;98399.38;;;4.10;100.00
57114;BME280;42994;51.606;9.988;2024-03-25T08:04:45;98400.22;;;4.10;100.00
57114;BME280;42994;51.606;9.988;2024-03-25T08:07:12;98403.72;;;4.11;100.00
57114;BME280;42994;51.606;9.988;2024-03-25T08:09:38;98389.13;;;4.15;100.00
57114;BME280;42994;51.606;9.988;2024-03-25T08:12:05;98392.75;;;4.14;100.00
57114;BME280;42994;51.606;9.988;2024-03-25T08:14:31;98390.78;;;4.08;100.00
57114;BME280;42994;51.606;9.988;2024-03-25T08:16:57;98384.78;;;4.14;100.00
57114;BME280;42994;51.606;9.988;2024-03-25T08:19:23;98379.66;;;4.20;100.00
57114;BME280;42994;51.606;9.988;2024-03-25T08:21:49;98386.31;;;4.33;100.00
57114;BME280;42994;51.606;9.988;2024-03-25T08:24:16;98377.66;;;4.39;100.00
57114;BME280;42994;51.606;9.988;2024-03-25T08:26:42;98378.66;;;4.46;100.00
57114;BME280;42994;51.606;9.988;2024-03-25T08:29:07;98372.81;;;4.59;100.00
57114;BME280;42994;51.606;9.988;2024-03-25T08:31:33;98363.53;;;4.47;100.00
57114;BME280;42994;51.606;9.988;2024-03-25T08:33:59;98355.97;;;4.27;100.00
57114;BME280;42994;51.606;9.988;2024-03-25T08:36:25;98360.72;;;4.48;100.00
57114;BME280;42994;51.606;9.988;2024-03-25T08:38:51;98363.06;;;4.43;100.00
57114;BME280;42994;51.606;9.988;2024-03-25T08:41:18;98353.59;;;4.49;100.00
57114;BME280;42994;51.606;9.988;2024-03-25T08:43:44;98363.66;;;4.70;100.00
57114;BME280;42994;51.606;9.988;2024-03-25T08:46:10;98355.53;;;4.71;100.00
57114;BME280;42994;51.606;9.988;2024-03-25T08:48:38;98363.16;;;4.74;100.00
57114;BME280;42994;51.606;9.988;2024-03-25T08:51:04;98356.69;;;4.77;100.00
57114;BME280;42994;51.606;9.988;2024-03-25T08:53:30;98353.75;;;4.55;100.00
57114;BME280;42994;51.606;9.988;2024-03-25T08:55:56;98336.63;;;4.66;100.00
57114;BME280;42994;51.606;9.988;2024-03-25T08:58:24;98331.66;;;4.63;100.00
57114;BME280;42994;51.606;9.988;2024-03-25T09:00:50;98328.28;;;4.77;100.00
57114;BME280;42994;51.606;9.988;2024-03-25T09:03:16;98315.34;;;4.74;100.00
57114;BME280;42994;51.606;9.988;2024-03-25T09:05:42;98301.41;;;4.80;100.00
57114;BME280;42994;51.606;9.988;2024-03-25T09:08:09;98298.69;;;4.89;100.00
57114;BME280;42994;51.606;9.988;2024-03-25T09:10:35;98292.25;;;4.91;100.00
57114;BME280;42994;51.606;9.988;2024-03-25T09:13:19;98289.09;;;4.88;100.00
57114;BME280;42994;51.606;9.988;2024-03-25T09:15:47;98281.53;;;4.76;100.00
57114;BME280;42994;51.606;9.988;2024-03-25T09:18:13;98284.19;;;4.76;100.00
57114;BME280;42994;51.606;9.988;2024-03-25T09:20:39;98285.59;;;4.87;100.00
57114;BME280;42994;51.606;9.988;2024-03-25T09:23:05;98285.47;;;4.80;100.00
57114;BME280;42994;51.606;9.988;2024-03-25T09:25:31;98282.53;;;4.67;100.00
57114;BME280;42994;51.606;9.988;2024-03-25T09:27:58;98289.50;;;4.76;100.00
57114;BME280;42994;51.606;9.988;2024-03-25T09:30:24;98282.50;;;4.75;100.00
57114;BME280;42994;51.606;9.988;2024-03-25T09:32:52;98296.44;;;4.77;100.00
57114;BME280;42994;51.606;9.988;2024-03-25T09:35:18;98301.25;;;4.74;100.00
57114;BME280;42994;51.606;9.988;2024-03-25T09:37:44;98285.16;;;4.75;100.00
57114;BME280;42994;51.606;9.988;2024-03-25T09:40:11;98284.34;;;4.75;100.00
57114;BME280;42994;51.606;9.988;2024-03-25T09:42:43;98273.66;;;4.83;100.00
57114;BME280;42994;51.606;9.988;2024-03-25T09:45:13;98266.16;;;4.95;100.00
57114;BME280;42994;51.606;9.988;2024-03-25T09:47:44;98266.03;;;4.88;100.00
57114;BME280;42994;51.606;9.988;2024-03-25T09:50:13;98265.78;;;4.98;100.00
57114;BME280;42994;51.606;9.988;2024-03-25T09:52:40;98251.94;;;4.88;100.00
57114;BME280;42994;51.606;9.988;2024-03-25T09:55:06;98249.22;;;4.96;100.00
57114;BME280;42994;51.606;9.988;2024-03-25T09:57:33;98239.59;;;4.95;100.00
57114;BME280;42994;51.606;9.988;2024-03-25T10:00:00;98245.41;;;4.98;100.00
57114;BME280;42994;51.606;9.988;2024-03-25T10:02:28;98243.69;;;5.06;100.00
57114;BME280;42994;51.606;9.988;2024-03-25T10:04:55;98242.41;;;5.25;100.00
57114;BME280;42994;51.606;9.988;2024-03-25T10:07:24;98241.16;;;5.35;100.00
57114;BME280;42994;51.606;9.988;2024-03-25T10:09:53;98234.34;;;5.33;100.00
57114;BME280;42994;51.606;9.988;2024-03-25T10:12:19;98227.22;;;5.33;100.00
57114;BME280;42994;51.606;9.988;2024-03-25T10:14:45;98227.22;;;5.33;100.00
57114;BME280;42994;51.606;9.988;2024-03-25T10:17:11;98226.34;;;5.41;100.00
57114;BME280;42994;51.606;9.988;2024-03-25T10:19:38;98216.13;;;5.30;100.00
57114;BME280;42994;51.606;9.988;2024-03-25T10:22:05;98233.53;;;5.32;100.00
57114;BME280;42994;51.606;9.988;2024-03-25T10:24:54;98221.06;;;5.33;100.00
57114;BME280;42994;51.606;9.988;2024-03-25T10:27:20;98220.84;;;5.43;100.00
57114;BME280;42994;51.606;9.988;2024-03-25T10:30:14;98216.94;;;5.53;100.00
57114;BME280;42994;51.606;9.988;2024-03-25T10:33:05;98213.84;;;5.65;100.00
57114;BME280;42994;51.606;9.988;2024-03-25T10:35:32;98225.81;;;5.84;100.00
57114;BME280;42994;51.606;9.988;2024-03-25T10:40:44;98214.16;;;5.85;100.00
57114;BME280;42994;51.606;9.988;2024-03-25T10:43:11;98211.75;;;6.13;100.00
57114;BME280;42994;51.606;9.988;2024-03-25T10:45:40;98206.19;;;5.85;100.00
57114;BME280;42994;51.606;9.988;2024-03-25T10:48:12;98200.84;;;6.08;100.00
57114;BME280;42994;51.606;9.988;2024-03-25T10:50:41;98206.41;;;6.13;100.00
57114;BME280;42994;51.606;9.988;2024-03-25T10:53:10;98201.56;;;6.16;100.00
57114;BME280;42994;51.606;9.988;2024-03-25T10:55:40;98200.91;;;6.14;100.00
57114;BME280;42994;51.606;9.988;2024-03-25T10:58:07;98199.47;;;6.12;100.00
57114;BME280;42994;51.606;9.988;2024-03-25T11:00:34;98207.28;;;6.13;100.00
57114;BME280;42994;51.606;9.988;2024-03-25T11:03:01;98195.94;;;5.96;100.00
57114;BME280;42994;51.606;9.988;2024-03-25T11:05:27;98193.75;;;6.15;100.00
57114;BME280;42994;51.606;9.988;2024-03-25T11:07:53;98186.06;;;6.20;100.00
57114;BME280;42994;51.606;9.988;2024-03-25T11:10:19;98191.56;;;6.04;100.00
57114;BME280;42994;51.606;9.988;2024-03-25T11:12:54;98184.03;;;6.22;100.00
57114;BME280;42994;51.606;9.988;2024-03-25T11:15:21;98184.78;;;6.16;100.00
57114;BME280;42994;51.606;9.988;2024-03-25T11:17:50;98173.22;;;6.09;100.00
57114;BME280;42994;51.606;9.988;2024-03-25T11:20:17;98182.03;;;6.24;100.00
57114;BME280;42994;51.606;9.988;2024-03-25T11:22:52;98186.97;;;6.12;100.00
57114;BME280;42994;51.606;9.988;2024-03-25T11:25:20;98176.97;;;6.29;100.00
57114;BME280;42994;51.606;9.988;2024-03-25T11:27:47;98178.16;;;6.27;100.00
57114;BME280;42994;51.606;9.988;2024-03-25T11:30:13;98175.03;;;6.38;100.00
57114;BME280;42994;51.606;9.988;2024-03-25T11:32:51;98168.16;;;6.29;100.00
57114;BME280;42994;51.606;9.988;2024-03-25T11:35:17;98158.13;;;6.46;100.00
57114;BME280;42994;51.606;9.988;2024-03-25T11:37:43;98152.59;;;6.62;100.00
57114;BME280;42994;51.606;9.988;2024-03-25T11:40:10;98150.25;;;6.38;100.00
57114;BME280;42994;51.606;9.988;2024-03-25T11:42:38;98155.88;;;6.64;100.00
57114;BME280;42994;51.606;9.988;2024-03-25T11:45:05;98143.00;;;6.83;100.00
57114;BME280;42994;51.606;9.988;2024-03-25T11:47:31;98148.50;;;6.81;100.00
57114;BME280;42994;51.606;9.988;2024-03-25T11:49:58;98149.31;;;6.82;100.00
57114;BME280;42994;51.606;9.988;2024-03-25T11:52:29;98145.66;;;7.04;100.00
57114;BME280;42994;51.606;9.988;2024-03-25T11:54:55;98149.63;;;6.93;100.00
57114;BME280;42994;51.606;9.988;2024-03-25T11:57:21;98144.53;;;6.92;100.00
57114;BME280;42994;51.606;9.988;2024-03-25T11:59:47;98146.41;;;6.98;100.00
57114;BME280;42994;51.606;9.988;2024-03-25T12:02:14;98144.25;;;6.87;100.00
57114;BME280;42994;51.606;9.988;2024-03-25T12:04:42;98140.97;;;6.85;100.00
57114;BME280;42994;51.606;9.988;2024-03-25T12:07:12;98139.44;;;6.76;100.00
57114;BME280;42994;51.606;9.988;2024-03-25T12:09:38;98140.38;;;6.89;100.00
57114;BME280;42994;51.606;9.988;2024-03-25T12:12:22;98142.59;;;6.86;100.00
57114;BME280;42994;51.606;9.988;2024-03-25T12:14:48;98142.69;;;6.92;100.00
57114;BME280;42994;51.606;9.988;2024-03-25T12:17:14;98155.84;;;7.01;100.00
57114;BME280;42994;51.606;9.988;2024-03-25T12:19:44;98143.75;;;6.98;100.00
57114;BME280;42994;51.606;9.988;2024-03-25T12:22:11;98136.38;;;7.22;100.00
57114;BME280;42994;51.606;9.988;2024-03-25T12:24:37;98133.97;;;7.48;100.00
57114;BME280;42994;51.606;9.988;2024-03-25T12:27:04;98132.38;;;7.61;100.00
57114;BME280;42994;51.606;9.988;2024-03-25T12:29:30;98131.78;;;7.37;100.00
57114;BME280;42994;51.606;9.988;2024-03-25T12:31:57;98135.88;;;7.11;100.00
57114;BME280;42994;51.606;9.988;2024-03-25T12:34:22;98133.09;;;7.20;100.00
57114;BME280;42994;51.606;9.988;2024-03-25T12:36:50;98123.78;;;7.37;100.00
57114;BME280;42994;51.606;9.988;2024-03-25T12:39:18;98127.13;;;7.39;100.00
57114;BME280;42994;51.606;9.988;2024-03-25T12:41:44;98120.28;;;7.08;100.00
57114;BME280;42994;51.606;9.988;2024-03-25T12:44:12;98116.66;;;7.16;100.00
57114;BME280;42994;51.606;9.988;2024-03-25T12:46:38;98113.56;;;7.41;100.00
57114;BME280;42994;51.606;9.988;2024-03-25T12:49:04;98114.88;;;7.23;100.00
57114;BME280;42994;51.606;9.988;2024-03-25T12:51:30;98111.53;;;7.43;100.00
57114;BME280;42994;51.606;9.988;2024-03-25T12:53:56;98101.03;;;7.13;100.00
57114;BME280;42994;51.606;9.988;2024-03-25T12:56:24;98097.06;;;7.52;100.00
57114;BME280;42994;51.606;9.988;2024-03-25T12:58:50;98097.44;;;7.49;100.00
57114;BME280;42994;51.606;9.988;2024-03-25T13:01:16;98094.59;;;7.85;100.00